Hoko, Washington
Current Conditions -  °F | °C
As of 12:53 AM on Sunday 21 Dec 2014 (Local Time) from KUIL Reporting Station
Overcast Overcast  
Wind Chill: 51°   Ceiling: 1900
Heat Index: 51°   Visibility: 7mi
Dew Point: 48°   Wind: 10mph
Humidity: 89%   Direction: 270°W
Pressure: 29.66"   Gusts: 18mph
Location:  48.1832°N, 124.531°W
Report Text: KUIL 210853Z AUTO 27009G16KT 7SM BKN019 BKN031 OVC050 11/09 A2966 RMK AO2 SLP043 T01060089 51050 $
Loading
Personal Weather Stations






























Interactive Weather Map New forecast layout! Learn more

10-Day Weather Forecast

Advertisements
Track Severe Weather on mobile